sensor_id;sensor_type;location;lat;lon;timestamp;P1;durP1;ratioP1;P2;durP2;ratioP2
14778;SDS011;7481;53.750;10.570;2023-09-19T00:03:08;3.70;;;1.80;;
14778;SDS011;7481;53.750;10.570;2023-09-19T00:07:31;3.95;;;2.40;;
14778;SDS011;7481;53.750;10.570;2023-09-19T00:11:53;4.22;;;2.22;;
14778;SDS011;7481;53.750;10.570;2023-09-19T00:16:16;3.85;;;2.10;;
14778;SDS011;7481;53.750;10.570;2023-09-19T00:20:40;3.88;;;2.30;;
14778;SDS011;7481;53.750;10.570;2023-09-19T00:25:03;5.97;;;2.63;;
14778;SDS011;7481;53.750;10.570;2023-09-19T00:29:27;5.18;;;2.45;;
14778;SDS011;7481;53.750;10.570;2023-09-19T00:33:50;3.38;;;2.20;;
14778;SDS011;7481;53.750;10.570;2023-09-19T00:38:13;3.45;;;2.50;;
14778;SDS011;7481;53.750;10.570;2023-09-19T00:42:40;7.15;;;2.50;;
14778;SDS011;7481;53.750;10.570;2023-09-19T00:47:02;3.78;;;2.65;;
14778;SDS011;7481;53.750;10.570;2023-09-19T00:51:26;5.77;;;3.00;;
14778;SDS011;7481;53.750;10.570;2023-09-19T00:55:49;4.15;;;2.67;;
14778;SDS011;7481;53.750;10.570;2023-09-19T01:00:12;4.78;;;3.20;;
14778;SDS011;7481;53.750;10.570;2023-09-19T01:04:37;4.27;;;3.10;;
14778;SDS011;7481;53.750;10.570;2023-09-19T01:09:00;4.97;;;3.00;;
14778;SDS011;7481;53.750;10.570;2023-09-19T01:22:56;4.10;;;3.00;;
14778;SDS011;7481;53.750;10.570;2023-09-19T01:27:48;5.83;;;3.13;;
14778;SDS011;7481;53.750;10.570;2023-09-19T01:32:21;8.53;;;4.43;;
14778;SDS011;7481;53.750;10.570;2023-09-19T01:36:44;7.53;;;3.67;;
14778;SDS011;7481;53.750;10.570;2023-09-19T01:41:08;7.77;;;3.57;;
14778;SDS011;7481;53.750;10.570;2023-09-19T01:45:35;4.57;;;3.40;;
14778;SDS011;7481;53.750;10.570;2023-09-19T01:50:07;5.73;;;3.93;;
14778;SDS011;7481;53.750;10.570;2023-09-19T01:54:33;7.25;;;3.97;;
14778;SDS011;7481;53.750;10.570;2023-09-19T01:58:59;6.15;;;3.50;;
14778;SDS011;7481;53.750;10.570;2023-09-19T02:03:25;6.38;;;4.10;;
14778;SDS011;7481;53.750;10.570;2023-09-19T02:07:50;6.03;;;3.67;;
14778;SDS011;7481;53.750;10.570;2023-09-19T02:12:14;5.88;;;3.83;;
14778;SDS011;7481;53.750;10.570;2023-09-19T02:16:37;4.80;;;3.93;;
14778;SDS011;7481;53.750;10.570;2023-09-19T02:20:59;5.03;;;3.60;;
14778;SDS011;7481;53.750;10.570;2023-09-19T02:25:21;4.80;;;3.70;;
14778;SDS011;7481;53.750;10.570;2023-09-19T02:29:44;5.50;;;3.70;;
14778;SDS011;7481;53.750;10.570;2023-09-19T02:34:07;8.27;;;4.00;;
14778;SDS011;7481;53.750;10.570;2023-09-19T02:38:31;7.43;;;4.40;;
14778;SDS011;7481;53.750;10.570;2023-09-19T02:42:54;6.27;;;4.03;;
14778;SDS011;7481;53.750;10.570;2023-09-19T02:47:16;7.17;;;3.63;;
14778;SDS011;7481;53.750;10.570;2023-09-19T02:51:39;8.73;;;3.00;;
14778;SDS011;7481;53.750;10.570;2023-09-19T02:56:01;5.03;;;3.10;;
14778;SDS011;7481;53.750;10.570;2023-09-19T03:00:25;6.90;;;3.40;;
14778;SDS011;7481;53.750;10.570;2023-09-19T03:04:48;4.87;;;3.23;;
14778;SDS011;7481;53.750;10.570;2023-09-19T03:09:12;4.10;;;3.13;;
14778;SDS011;7481;53.750;10.570;2023-09-19T03:13:35;5.73;;;3.70;;
14778;SDS011;7481;53.750;10.570;2023-09-19T03:18:00;6.43;;;3.60;;
14778;SDS011;7481;53.750;10.570;2023-09-19T03:22:22;7.17;;;3.97;;
14778;SDS011;7481;53.750;10.570;2023-09-19T03:26:46;6.07;;;3.83;;
14778;SDS011;7481;53.750;10.570;2023-09-19T03:31:09;7.43;;;3.77;;
14778;SDS011;7481;53.750;10.570;2023-09-19T03:35:32;5.87;;;4.07;;
14778;SDS011;7481;53.750;10.570;2023-09-19T03:39:56;4.63;;;3.40;;
14778;SDS011;7481;53.750;10.570;2023-09-19T03:44:18;8.93;;;3.80;;
14778;SDS011;7481;53.750;10.570;2023-09-19T03:48:41;8.47;;;3.57;;
14778;SDS011;7481;53.750;10.570;2023-09-19T03:53:04;4.90;;;3.80;;
14778;SDS011;7481;53.750;10.570;2023-09-19T03:57:28;5.57;;;3.40;;
14778;SDS011;7481;53.750;10.570;2023-09-19T04:01:51;7.87;;;3.50;;
14778;SDS011;7481;53.750;10.570;2023-09-19T04:06:17;6.23;;;3.13;;
14778;SDS011;7481;53.750;10.570;2023-09-19T04:10:42;5.40;;;2.97;;
14778;SDS011;7481;53.750;10.570;2023-09-19T04:15:06;5.77;;;3.20;;
14778;SDS011;7481;53.750;10.570;2023-09-19T04:19:30;4.33;;;2.73;;
14778;SDS011;7481;53.750;10.570;2023-09-19T04:23:52;4.30;;;2.47;;
14778;SDS011;7481;53.750;10.570;2023-09-19T04:28:15;9.23;;;3.43;;
14778;SDS011;7481;53.750;10.570;2023-09-19T04:32:40;7.90;;;3.30;;
14778;SDS011;7481;53.750;10.570;2023-09-19T04:37:03;5.80;;;2.73;;
14778;SDS011;7481;53.750;10.570;2023-09-19T04:41:25;5.57;;;2.80;;
14778;SDS011;7481;53.750;10.570;2023-09-19T04:45:48;5.20;;;2.97;;
14778;SDS011;7481;53.750;10.570;2023-09-19T04:50:10;7.87;;;2.50;;
14778;SDS011;7481;53.750;10.570;2023-09-19T04:54:33;13.13;;;3.17;;
14778;SDS011;7481;53.750;10.570;2023-09-19T04:58:56;9.13;;;2.77;;
14778;SDS011;7481;53.750;10.570;2023-09-19T05:03:19;6.17;;;2.57;;
14778;SDS011;7481;53.750;10.570;2023-09-19T05:07:43;3.97;;;2.43;;
14778;SDS011;7481;53.750;10.570;2023-09-19T05:12:06;8.13;;;2.80;;
14778;SDS011;7481;53.750;10.570;2023-09-19T05:16:29;10.00;;;2.90;;
14778;SDS011;7481;53.750;10.570;2023-09-19T05:20:53;7.57;;;2.70;;
14778;SDS011;7481;53.750;10.570;2023-09-19T05:25:16;7.27;;;2.33;;
14778;SDS011;7481;53.750;10.570;2023-09-19T05:29:40;5.10;;;2.43;;
14778;SDS011;7481;53.750;10.570;2023-09-19T05:34:04;10.47;;;2.83;;
14778;SDS011;7481;53.750;10.570;2023-09-19T05:38:27;8.60;;;2.80;;
14778;SDS011;7481;53.750;10.570;2023-09-19T05:42:50;5.13;;;2.50;;
14778;SDS011;7481;53.750;10.570;2023-09-19T05:47:12;5.80;;;2.37;;
14778;SDS011;7481;53.750;10.570;2023-09-19T05:51:35;8.80;;;2.97;;
14778;SDS011;7481;53.750;10.570;2023-09-19T05:55:57;7.90;;;2.87;;
14778;SDS011;7481;53.750;10.570;2023-09-19T06:00:20;8.77;;;2.43;;
14778;SDS011;7481;53.750;10.570;2023-09-19T06:04:47;6.13;;;2.60;;
14778;SDS011;7481;53.750;10.570;2023-09-19T06:09:10;5.97;;;2.20;;
14778;SDS011;7481;53.750;10.570;2023-09-19T06:13:33;6.13;;;2.60;;
14778;SDS011;7481;53.750;10.570;2023-09-19T06:17:55;8.27;;;2.40;;
14778;SDS011;7481;53.750;10.570;2023-09-19T06:22:19;6.17;;;1.90;;
14778;SDS011;7481;53.750;10.570;2023-09-19T06:26:42;9.33;;;2.57;;
14778;SDS011;7481;53.750;10.570;2023-09-19T06:31:05;8.37;;;2.47;;
14778;SDS011;7481;53.750;10.570;2023-09-19T06:35:32;4.97;;;2.73;;
14778;SDS011;7481;53.750;10.570;2023-09-19T06:39:55;7.70;;;2.93;;
14778;SDS011;7481;53.750;10.570;2023-09-19T06:44:18;7.00;;;2.83;;
14778;SDS011;7481;53.750;10.570;2023-09-19T06:48:42;5.47;;;2.40;;
14778;SDS011;7481;53.750;10.570;2023-09-19T06:53:05;7.97;;;2.43;;
14778;SDS011;7481;53.750;10.570;2023-09-19T06:57:28;6.47;;;2.53;;
14778;SDS011;7481;53.750;10.570;2023-09-19T07:01:52;6.17;;;2.40;;
14778;SDS011;7481;53.750;10.570;2023-09-19T07:06:15;8.40;;;2.40;;
14778;SDS011;7481;53.750;10.570;2023-09-19T07:10:41;6.03;;;2.70;;
14778;SDS011;7481;53.750;10.570;2023-09-19T07:15:10;8.43;;;2.47;;
14778;SDS011;7481;53.750;10.570;2023-09-19T07:19:33;8.07;;;2.73;;
14778;SDS011;7481;53.750;10.570;2023-09-19T07:23:55;9.43;;;2.87;;
14778;SDS011;7481;53.750;10.570;2023-09-19T07:28:18;7.97;;;2.80;;
14778;SDS011;7481;53.750;10.570;2023-09-19T07:32:42;7.40;;;2.50;;
14778;SDS011;7481;53.750;10.570;2023-09-19T07:37:05;11.18;;;3.10;;
14778;SDS011;7481;53.750;10.570;2023-09-19T07:41:27;7.57;;;3.10;;
14778;SDS011;7481;53.750;10.570;2023-09-19T07:45:52;8.30;;;2.73;;
14778;SDS011;7481;53.750;10.570;2023-09-19T07:50:15;7.67;;;2.80;;
14778;SDS011;7481;53.750;10.570;2023-09-19T07:54:38;7.37;;;2.97;;
14778;SDS011;7481;53.750;10.570;2023-09-19T07:59:03;6.77;;;2.40;;
14778;SDS011;7481;53.750;10.570;2023-09-19T08:03:25;10.17;;;2.93;;
14778;SDS011;7481;53.750;10.570;2023-09-19T08:07:48;8.40;;;3.20;;
14778;SDS011;7481;53.750;10.570;2023-09-19T08:12:11;9.35;;;3.03;;
14778;SDS011;7481;53.750;10.570;2023-09-19T08:16:34;7.97;;;3.20;;
14778;SDS011;7481;53.750;10.570;2023-09-19T08:20:56;6.70;;;3.00;;
14778;SDS011;7481;53.750;10.570;2023-09-19T08:25:22;10.60;;;3.27;;
14778;SDS011;7481;53.750;10.570;2023-09-19T08:29:45;7.43;;;3.00;;
14778;SDS011;7481;53.750;10.570;2023-09-19T08:34:08;5.63;;;2.40;;
14778;SDS011;7481;53.750;10.570;2023-09-19T08:38:30;6.83;;;2.90;;
14778;SDS011;7481;53.750;10.570;2023-09-19T08:42:55;7.80;;;2.60;;
14778;SDS011;7481;53.750;10.570;2023-09-19T08:47:18;5.93;;;2.60;;
14778;SDS011;7481;53.750;10.570;2023-09-19T08:51:48;6.30;;;2.63;;
14778;SDS011;7481;53.750;10.570;2023-09-19T08:56:16;7.60;;;2.80;;
14778;SDS011;7481;53.750;10.570;2023-09-19T09:00:42;7.83;;;2.67;;
14778;SDS011;7481;53.750;10.570;2023-09-19T09:05:13;8.70;;;3.10;;
14778;SDS011;7481;53.750;10.570;2023-09-19T09:09:38;11.43;;;3.33;;
14778;SDS011;7481;53.750;10.570;2023-09-19T09:14:03;10.07;;;3.30;;
14778;SDS011;7481;53.750;10.570;2023-09-19T09:18:30;10.18;;;3.35;;
14778;SDS011;7481;53.750;10.570;2023-09-19T09:22:56;9.27;;;3.10;;
14778;SDS011;7481;53.750;10.570;2023-09-19T09:27:25;15.57;;;3.20;;
14778;SDS011;7481;53.750;10.570;2023-09-19T09:31:48;10.93;;;3.08;;
14778;SDS011;7481;53.750;10.570;2023-09-19T09:36:24;8.63;;;3.30;;
14778;SDS011;7481;53.750;10.570;2023-09-19T09:41:03;9.73;;;2.60;;
14778;SDS011;7481;53.750;10.570;2023-09-19T09:46:07;10.13;;;3.17;;
14778;SDS011;7481;53.750;10.570;2023-09-19T09:51:00;14.17;;;3.60;;
14778;SDS011;7481;53.750;10.570;2023-09-19T09:55:27;13.73;;;3.45;;
14778;SDS011;7481;53.750;10.570;2023-09-19T09:59:54;8.70;;;3.00;;
14778;SDS011;7481;53.750;10.570;2023-09-19T10:04:27;7.00;;;2.45;;
14778;SDS011;7481;53.750;10.570;2023-09-19T10:09:03;6.88;;;2.58;;
14778;SDS011;7481;53.750;10.570;2023-09-19T10:13:33;10.75;;;3.00;;
14778;SDS011;7481;53.750;10.570;2023-09-19T10:18:04;8.57;;;2.97;;
14778;SDS011;7481;53.750;10.570;2023-09-19T10:22:30;10.13;;;2.72;;
14778;SDS011;7481;53.750;10.570;2023-09-19T10:26:54;8.60;;;3.03;;
14778;SDS011;7481;53.750;10.570;2023-09-19T10:31:20;7.80;;;2.85;;
14778;SDS011;7481;53.750;10.570;2023-09-19T10:35:46;8.65;;;2.80;;
14778;SDS011;7481;53.750;10.570;2023-09-19T10:40:10;9.65;;;2.78;;
14778;SDS011;7481;53.750;10.570;2023-09-19T10:44:34;7.57;;;3.28;;
14778;SDS011;7481;53.750;10.570;2023-09-19T10:49:05;6.68;;;2.75;;
14778;SDS011;7481;53.750;10.570;2023-09-19T10:53:28;7.07;;;2.90;;
14778;SDS011;7481;53.750;10.570;2023-09-19T10:57:52;6.82;;;2.63;;
14778;SDS011;7481;53.750;10.570;2023-09-19T11:02:16;8.60;;;2.70;;
14778;SDS011;7481;53.750;10.570;2023-09-19T11:06:39;7.30;;;2.60;;
14778;SDS011;7481;53.750;10.570;2023-09-19T11:11:05;7.47;;;2.35;;
14778;SDS011;7481;53.750;10.570;2023-09-19T11:20:20;5.93;;;2.67;;
14778;SDS011;7481;53.750;10.570;2023-09-19T11:25:27;8.65;;;2.40;;
14778;SDS011;7481;53.750;10.570;2023-09-19T11:29:43;8.77;;;2.75;;
14778;SDS011;7481;53.750;10.570;2023-09-19T11:43:30;7.00;;;2.28;;
14778;SDS011;7481;53.750;10.570;2023-09-19T11:47:55;4.03;;;1.95;;
14778;SDS011;7481;53.750;10.570;2023-09-19T11:52:21;7.35;;;2.70;;
14778;SDS011;7481;53.750;10.570;2023-09-19T11:56:48;6.68;;;2.65;;
14778;SDS011;7481;53.750;10.570;2023-09-19T12:01:24;9.73;;;2.88;;
14778;SDS011;7481;53.750;10.570;2023-09-19T12:05:51;9.75;;;2.53;;
14778;SDS011;7481;53.750;10.570;2023-09-19T12:10:13;7.10;;;2.75;;
14778;SDS011;7481;53.750;10.570;2023-09-19T12:14:40;7.82;;;3.28;;
14778;SDS011;7481;53.750;10.570;2023-09-19T12:19:17;9.70;;;2.45;;
14778;SDS011;7481;53.750;10.570;2023-09-19T12:23:44;4.80;;;2.30;;
14778;SDS011;7481;53.750;10.570;2023-09-19T12:28:16;6.28;;;2.30;;
14778;SDS011;7481;53.750;10.570;2023-09-19T12:32:47;7.68;;;2.42;;
14778;SDS011;7481;53.750;10.570;2023-09-19T12:37:23;7.35;;;2.50;;
14778;SDS011;7481;53.750;10.570;2023-09-19T12:41:54;7.32;;;2.38;;
14778;SDS011;7481;53.750;10.570;2023-09-19T12:46:19;8.02;;;3.15;;
14778;SDS011;7481;53.750;10.570;2023-09-19T12:51:07;8.00;;;2.85;;
14778;SDS011;7481;53.750;10.570;2023-09-19T12:55:32;7.57;;;2.45;;
14778;SDS011;7481;53.750;10.570;2023-09-19T12:59:57;7.05;;;2.78;;
14778;SDS011;7481;53.750;10.570;2023-09-19T13:04:22;8.38;;;2.60;;
14778;SDS011;7481;53.750;10.570;2023-09-19T13:09:07;9.20;;;2.97;;
14778;SDS011;7481;53.750;10.570;2023-09-19T13:13:30;7.43;;;3.03;;
14778;SDS011;7481;53.750;10.570;2023-09-19T13:17:53;5.40;;;2.45;;
14778;SDS011;7481;53.750;10.570;2023-09-19T13:26:57;9.57;;;3.20;;
14778;SDS011;7481;53.750;10.570;2023-09-19T13:31:22;7.32;;;2.60;;
14778;SDS011;7481;53.750;10.570;2023-09-19T13:35:45;5.75;;;2.55;;
14778;SDS011;7481;53.750;10.570;2023-09-19T13:40:10;7.57;;;2.83;;
14778;SDS011;7481;53.750;10.570;2023-09-19T13:44:33;6.75;;;3.42;;
14778;SDS011;7481;53.750;10.570;2023-09-19T13:48:56;5.90;;;2.60;;
14778;SDS011;7481;53.750;10.570;2023-09-19T13:53:20;7.95;;;2.95;;
14778;SDS011;7481;53.750;10.570;2023-09-19T13:57:43;9.32;;;3.05;;
14778;SDS011;7481;53.750;10.570;2023-09-19T14:02:05;7.82;;;2.92;;
14778;SDS011;7481;53.750;10.570;2023-09-19T14:06:31;10.15;;;3.28;;
14778;SDS011;7481;53.750;10.570;2023-09-19T14:10:56;8.35;;;3.33;;
14778;SDS011;7481;53.750;10.570;2023-09-19T14:15:19;8.25;;;3.15;;
14778;SDS011;7481;53.750;10.570;2023-09-19T14:19:52;5.95;;;2.72;;
14778;SDS011;7481;53.750;10.570;2023-09-19T14:24:18;8.45;;;3.10;;
14778;SDS011;7481;53.750;10.570;2023-09-19T14:28:41;8.20;;;3.17;;
14778;SDS011;7481;53.750;10.570;2023-09-19T14:33:04;6.85;;;3.00;;
14778;SDS011;7481;53.750;10.570;2023-09-19T14:37:28;7.50;;;2.97;;
14778;SDS011;7481;53.750;10.570;2023-09-19T14:41:51;7.03;;;3.13;;
14778;SDS011;7481;53.750;10.570;2023-09-19T14:46:14;5.22;;;2.65;;
14778;SDS011;7481;53.750;10.570;2023-09-19T14:50:38;6.82;;;3.17;;
14778;SDS011;7481;53.750;10.570;2023-09-19T14:55:00;5.07;;;2.63;;
14778;SDS011;7481;53.750;10.570;2023-09-19T14:59:23;7.35;;;2.88;;
14778;SDS011;7481;53.750;10.570;2023-09-19T15:03:46;9.55;;;3.15;;
14778;SDS011;7481;53.750;10.570;2023-09-19T15:08:10;6.07;;;3.28;;
14778;SDS011;7481;53.750;10.570;2023-09-19T15:12:33;6.05;;;2.97;;
14778;SDS011;7481;53.750;10.570;2023-09-19T15:16:56;6.60;;;2.70;;
14778;SDS011;7481;53.750;10.570;2023-09-19T15:21:21;8.00;;;3.17;;
14778;SDS011;7481;53.750;10.570;2023-09-19T15:25:49;9.25;;;3.10;;
14778;SDS011;7481;53.750;10.570;2023-09-19T15:30:12;6.15;;;2.63;;
14778;SDS011;7481;53.750;10.570;2023-09-19T15:34:37;6.95;;;2.85;;
14778;SDS011;7481;53.750;10.570;2023-09-19T15:43:22;7.07;;;3.50;;
14778;SDS011;7481;53.750;10.570;2023-09-19T15:47:45;8.40;;;3.25;;
14778;SDS011;7481;53.750;10.570;2023-09-19T15:52:09;6.40;;;3.00;;
14778;SDS011;7481;53.750;10.570;2023-09-19T15:56:33;7.20;;;3.28;;
14778;SDS011;7481;53.750;10.570;2023-09-19T16:01:05;10.07;;;3.15;;
14778;SDS011;7481;53.750;10.570;2023-09-19T16:05:36;8.35;;;3.63;;
14778;SDS011;7481;53.750;10.570;2023-09-19T16:10:02;11.15;;;3.17;;
14778;SDS011;7481;53.750;10.570;2023-09-19T16:14:25;8.20;;;3.38;;
14778;SDS011;7481;53.750;10.570;2023-09-19T16:18:53;5.80;;;2.92;;
14778;SDS011;7481;53.750;10.570;2023-09-19T16:23:19;11.52;;;3.20;;
14778;SDS011;7481;53.750;10.570;2023-09-19T16:27:42;7.25;;;3.22;;
14778;SDS011;7481;53.750;10.570;2023-09-19T16:32:04;7.93;;;3.80;;
14778;SDS011;7481;53.750;10.570;2023-09-19T16:36:27;7.35;;;3.03;;
14778;SDS011;7481;53.750;10.570;2023-09-19T16:40:56;8.70;;;2.95;;
14778;SDS011;7481;53.750;10.570;2023-09-19T16:45:19;8.20;;;3.08;;
14778;SDS011;7481;53.750;10.570;2023-09-19T16:49:43;5.40;;;2.80;;
14778;SDS011;7481;53.750;10.570;2023-09-19T16:54:06;6.35;;;3.17;;
14778;SDS011;7481;53.750;10.570;2023-09-19T16:58:28;9.77;;;3.15;;
14778;SDS011;7481;53.750;10.570;2023-09-19T17:02:51;10.00;;;3.05;;
14778;SDS011;7481;53.750;10.570;2023-09-19T17:07:16;7.72;;;3.08;;
14778;SDS011;7481;53.750;10.570;2023-09-19T17:11:39;8.30;;;2.67;;
14778;SDS011;7481;53.750;10.570;2023-09-19T17:16:05;5.28;;;2.55;;
14778;SDS011;7481;53.750;10.570;2023-09-19T17:20:29;6.93;;;2.72;;
14778;SDS011;7481;53.750;10.570;2023-09-19T17:24:52;6.68;;;3.22;;
14778;SDS011;7481;53.750;10.570;2023-09-19T17:29:14;6.50;;;2.47;;
14778;SDS011;7481;53.750;10.570;2023-09-19T17:33:37;6.88;;;2.88;;
14778;SDS011;7481;53.750;10.570;2023-09-19T17:38:00;7.10;;;2.90;;
14778;SDS011;7481;53.750;10.570;2023-09-19T17:42:24;5.28;;;2.92;;
14778;SDS011;7481;53.750;10.570;2023-09-19T17:46:47;6.80;;;2.75;;
14778;SDS011;7481;53.750;10.570;2023-09-19T17:51:10;6.82;;;2.28;;
14778;SDS011;7481;53.750;10.570;2023-09-19T17:55:36;5.55;;;2.90;;
14778;SDS011;7481;53.750;10.570;2023-09-19T17:59:58;4.72;;;2.70;;
14778;SDS011;7481;53.750;10.570;2023-09-19T18:04:21;5.38;;;2.40;;
14778;SDS011;7481;53.750;10.570;2023-09-19T18:08:43;7.28;;;2.30;;
14778;SDS011;7481;53.750;10.570;2023-09-19T18:13:06;6.47;;;2.60;;
14778;SDS011;7481;53.750;10.570;2023-09-19T18:17:30;4.10;;;2.28;;
14778;SDS011;7481;53.750;10.570;2023-09-19T18:21:52;9.63;;;2.65;;
14778;SDS011;7481;53.750;10.570;2023-09-19T18:26:16;7.90;;;2.50;;
14778;SDS011;7481;53.750;10.570;2023-09-19T18:30:39;6.53;;;2.30;;
14778;SDS011;7481;53.750;10.570;2023-09-19T18:35:02;4.65;;;1.92;;
14778;SDS011;7481;53.750;10.570;2023-09-19T18:39:25;8.93;;;2.42;;
14778;SDS011;7481;53.750;10.570;2023-09-19T18:43:47;5.75;;;2.40;;
14778;SDS011;7481;53.750;10.570;2023-09-19T18:48:11;7.20;;;2.55;;
14778;SDS011;7481;53.750;10.570;2023-09-19T18:52:38;6.03;;;2.65;;
14778;SDS011;7481;53.750;10.570;2023-09-19T18:57:00;4.38;;;2.38;;
14778;SDS011;7481;53.750;10.570;2023-09-19T19:01:23;6.68;;;2.50;;
14778;SDS011;7481;53.750;10.570;2023-09-19T19:05:45;5.05;;;2.30;;
14778;SDS011;7481;53.750;10.570;2023-09-19T19:10:08;5.68;;;2.42;;
14778;SDS011;7481;53.750;10.570;2023-09-19T19:14:30;4.93;;;2.17;;
14778;SDS011;7481;53.750;10.570;2023-09-19T19:18:53;4.55;;;2.08;;
14778;SDS011;7481;53.750;10.570;2023-09-19T19:23:16;5.78;;;2.03;;
14778;SDS011;7481;53.750;10.570;2023-09-19T19:27:39;8.35;;;2.40;;
14778;SDS011;7481;53.750;10.570;2023-09-19T19:32:01;3.60;;;2.10;;
14778;SDS011;7481;53.750;10.570;2023-09-19T19:36:24;5.22;;;1.98;;
14778;SDS011;7481;53.750;10.570;2023-09-19T19:40:48;6.38;;;1.80;;
14778;SDS011;7481;53.750;10.570;2023-09-19T19:45:18;8.05;;;2.28;;
14778;SDS011;7481;53.750;10.570;2023-09-19T19:49:41;4.93;;;2.28;;
14778;SDS011;7481;53.750;10.570;2023-09-19T19:54:07;3.33;;;2.05;;
14778;SDS011;7481;53.750;10.570;2023-09-19T19:58:30;4.65;;;2.38;;
14778;SDS011;7481;53.750;10.570;2023-09-19T20:02:53;6.20;;;2.10;;
14778;SDS011;7481;53.750;10.570;2023-09-19T20:07:16;6.25;;;2.00;;
14778;SDS011;7481;53.750;10.570;2023-09-19T20:11:38;6.70;;;2.00;;
14778;SDS011;7481;53.750;10.570;2023-09-19T20:16:01;5.88;;;1.98;;
14778;SDS011;7481;53.750;10.570;2023-09-19T20:20:25;5.47;;;2.25;;
14778;SDS011;7481;53.750;10.570;2023-09-19T20:24:49;5.18;;;2.10;;
14778;SDS011;7481;53.750;10.570;2023-09-19T20:29:11;5.85;;;2.10;;
14778;SDS011;7481;53.750;10.570;2023-09-19T20:33:36;5.40;;;2.03;;
14778;SDS011;7481;53.750;10.570;2023-09-19T20:38:02;3.83;;;2.03;;
14778;SDS011;7481;53.750;10.570;2023-09-19T20:42:25;6.03;;;2.00;;
14778;SDS011;7481;53.750;10.570;2023-09-19T20:46:47;3.35;;;1.70;;
14778;SDS011;7481;53.750;10.570;2023-09-19T20:51:14;3.50;;;1.85;;
14778;SDS011;7481;53.750;10.570;2023-09-19T20:55:38;3.88;;;1.75;;
14778;SDS011;7481;53.750;10.570;2023-09-19T21:00:05;4.35;;;2.25;;
14778;SDS011;7481;53.750;10.570;2023-09-19T21:04:29;3.95;;;1.90;;
14778;SDS011;7481;53.750;10.570;2023-09-19T21:08:52;3.53;;;1.70;;
14778;SDS011;7481;53.750;10.570;2023-09-19T21:13:14;4.53;;;2.15;;
14778;SDS011;7481;53.750;10.570;2023-09-19T21:17:37;5.40;;;2.08;;
14778;SDS011;7481;53.750;10.570;2023-09-19T21:22:05;6.65;;;2.20;;
14778;SDS011;7481;53.750;10.570;2023-09-19T21:26:27;3.28;;;1.98;;
14778;SDS011;7481;53.750;10.570;2023-09-19T21:30:56;4.32;;;1.88;;
14778;SDS011;7481;53.750;10.570;2023-09-19T21:35:21;3.58;;;1.63;;
14778;SDS011;7481;53.750;10.570;2023-09-19T21:39:43;3.80;;;1.90;;
14778;SDS011;7481;53.750;10.570;2023-09-19T21:44:06;3.15;;;1.90;;
14778;SDS011;7481;53.750;10.570;2023-09-19T21:48:29;3.63;;;1.70;;
14778;SDS011;7481;53.750;10.570;2023-09-19T21:52:51;5.20;;;2.08;;
14778;SDS011;7481;53.750;10.570;2023-09-19T21:57:14;3.88;;;1.90;;
14778;SDS011;7481;53.750;10.570;2023-09-19T22:01:36;2.78;;;1.67;;
14778;SDS011;7481;53.750;10.570;2023-09-19T22:10:26;3.38;;;1.75;;
14778;SDS011;7481;53.750;10.570;2023-09-19T22:14:49;5.53;;;2.17;;
14778;SDS011;7481;53.750;10.570;2023-09-19T22:19:11;3.45;;;1.70;;
14778;SDS011;7481;53.750;10.570;2023-09-19T22:23:34;5.00;;;1.90;;
14778;SDS011;7481;53.750;10.570;2023-09-19T22:28:03;5.00;;;2.13;;
14778;SDS011;7481;53.750;10.570;2023-09-19T22:32:26;3.20;;;2.08;;
14778;SDS011;7481;53.750;10.570;2023-09-19T22:36:49;5.85;;;1.83;;
14778;SDS011;7481;53.750;10.570;2023-09-19T22:41:16;3.20;;;1.92;;
14778;SDS011;7481;53.750;10.570;2023-09-19T22:45:45;4.47;;;1.95;;
14778;SDS011;7481;53.750;10.570;2023-09-19T22:50:07;5.03;;;2.33;;
14778;SDS011;7481;53.750;10.570;2023-09-19T22:54:34;4.72;;;1.85;;
14778;SDS011;7481;53.750;10.570;2023-09-19T22:58:57;3.50;;;1.70;;
14778;SDS011;7481;53.750;10.570;2023-09-19T23:03:20;4.53;;;2.00;;
14778;SDS011;7481;53.750;10.570;2023-09-19T23:07:44;3.25;;;1.90;;
14778;SDS011;7481;53.750;10.570;2023-09-19T23:12:11;3.78;;;2.10;;
14778;SDS011;7481;53.750;10.570;2023-09-19T23:16:40;3.50;;;1.63;;
14778;SDS011;7481;53.750;10.570;2023-09-19T23:21:14;5.60;;;2.10;;
14778;SDS011;7481;53.750;10.570;2023-09-19T23:25:44;6.90;;;2.13;;
14778;SDS011;7481;53.750;10.570;2023-09-19T23:30:08;5.45;;;2.53;;
14778;SDS011;7481;53.750;10.570;2023-09-19T23:34:31;3.80;;;2.10;;
14778;SDS011;7481;53.750;10.570;2023-09-19T23:38:56;4.50;;;2.10;;
14778;SDS011;7481;53.750;10.570;2023-09-19T23:43:19;3.63;;;1.87;;
14778;SDS011;7481;53.750;10.570;2023-09-19T23:47:46;6.17;;;2.37;;
14778;SDS011;7481;53.750;10.570;2023-09-19T23:52:08;6.23;;;2.30;;
14778;SDS011;7481;53.750;10.570;2023-09-19T23:56:31;4.53;;;2.10;;
